Lake Forest, Illinois
Current Conditions -  °F | °C
As of 9:52 AM on Thursday 29 Jan 2015 (Local Time) from KPWK Reporting Station
Haze Haze  
Wind Chill: 22°   Ceiling: 1600
Heat Index: 33°   Visibility: 5mi
Dew Point: 27°   Wind: 17mph
Humidity: 78%   Direction: 330°NNW
Pressure: 29.88"   Gusts: 28mph
Location:  42.25°N, 87.84°W
Report Text: KPWK 291552Z 33015G24KT 5SM HZ OVC016 01/M03 A2988 RMK AO2 SLP123 T00061028
Loading
Personal Weather Stations






























Interactive Weather Map New forecast layout! Learn more

10-Day Weather Forecast

Advertisements
Track Severe Weather on mobile